createdAt,value
2019-03-30T00:01:35.265Z,8.33
2019-03-30T00:04:03.521Z,7.97
2019-03-30T00:06:31.810Z,8.60
2019-03-30T00:08:59.995Z,7.17
2019-03-30T00:11:28.226Z,8.23
2019-03-30T00:13:56.418Z,8.03
2019-03-30T00:16:24.662Z,8.73
2019-03-30T00:18:52.912Z,8.37
2019-03-30T00:21:21.133Z,9.30
2019-03-30T00:23:49.321Z,10.60
2019-03-30T00:26:17.582Z,11.20
2019-03-30T00:28:45.750Z,7.33
2019-03-30T00:31:13.972Z,9.30
2019-03-30T00:33:42.217Z,9.33
2019-03-30T00:36:10.413Z,8.93
2019-03-30T00:38:38.718Z,9.47
2019-03-30T00:41:06.917Z,10.00
2019-03-30T00:43:35.097Z,9.40
2019-03-30T00:46:03.434Z,9.40
2019-03-30T00:48:31.715Z,9.57
2019-03-30T00:51:00.126Z,9.83
2019-03-30T00:53:28.507Z,10.10
2019-03-30T00:55:56.808Z,10.20
2019-03-30T00:58:25.740Z,10.00
2019-03-30T01:00:54.178Z,9.43
2019-03-30T01:03:23.504Z,9.70
2019-03-30T01:05:51.755Z,10.10
2019-03-30T01:08:20.973Z,10.10
2019-03-30T01:10:49.192Z,9.67
2019-03-30T01:13:17.473Z,9.27
2019-03-30T01:15:45.680Z,9.33
2019-03-30T01:18:14.900Z,9.13
2019-03-30T01:20:43.136Z,9.67
2019-03-30T01:23:12.472Z,9.50
2019-03-30T01:25:40.701Z,10.23
2019-03-30T01:28:08.914Z,10.23
2019-03-30T01:30:37.294Z,9.93
2019-03-30T01:33:05.495Z,10.07
2019-03-30T01:35:33.713Z,10.27
2019-03-30T01:38:01.953Z,10.73
2019-03-30T01:40:30.205Z,9.83
2019-03-30T01:42:58.439Z,9.87
2019-03-30T01:45:26.704Z,8.90
2019-03-30T01:47:54.899Z,9.13
2019-03-30T01:50:23.097Z,10.30
2019-03-30T01:52:51.339Z,10.37
2019-03-30T01:55:19.532Z,10.33
2019-03-30T01:57:47.768Z,10.07
2019-03-30T02:00:16.407Z,10.60
2019-03-30T02:02:44.749Z,10.90
2019-03-30T02:05:12.925Z,10.47
2019-03-30T02:07:42.161Z,9.83
2019-03-30T02:10:11.649Z,8.93
2019-03-30T02:12:39.825Z,9.83
2019-03-30T02:15:08.073Z,9.13
2019-03-30T02:17:36.293Z,8.90
2019-03-30T02:20:04.962Z,9.37
2019-03-30T02:22:33.265Z,8.80
2019-03-30T02:25:01.619Z,9.93
2019-03-30T02:27:29.820Z,9.77
2019-03-30T02:29:58.029Z,9.13
2019-03-30T02:32:26.612Z,9.93
2019-03-30T02:34:54.930Z,10.00
2019-03-30T02:37:23.129Z,10.03
2019-03-30T02:39:51.384Z,10.47
2019-03-30T02:42:19.790Z,10.33
2019-03-30T02:44:48.078Z,10.60
2019-03-30T02:47:16.317Z,9.23
2019-03-30T02:49:44.550Z,9.83
2019-03-30T02:52:12.723Z,10.03
2019-03-30T02:54:41.064Z,9.57
2019-03-30T02:57:13.251Z,10.47
2019-03-30T02:59:41.477Z,10.27
2019-03-30T03:02:09.660Z,10.23
2019-03-30T03:04:38.099Z,11.23
2019-03-30T03:07:06.296Z,9.73
2019-03-30T03:09:34.484Z,8.27
2019-03-30T03:12:02.810Z,8.57
2019-03-30T03:14:31.009Z,8.77
2019-03-30T03:16:59.175Z,8.63
2019-03-30T03:19:27.382Z,9.77
2019-03-30T03:21:55.576Z,9.77
2019-03-30T03:24:23.774Z,9.23
2019-03-30T03:26:52.003Z,9.17
2019-03-30T03:29:20.288Z,9.47
2019-03-30T03:31:48.463Z,10.13
2019-03-30T03:34:16.669Z,10.27
2019-03-30T03:36:45.031Z,9.17
2019-03-30T03:39:13.283Z,10.10
2019-03-30T03:41:41.578Z,10.07
2019-03-30T03:44:09.835Z,10.37
2019-03-30T03:46:38.101Z,10.43
2019-03-30T03:49:06.311Z,10.03
2019-03-30T03:51:34.998Z,10.37
2019-03-30T03:54:03.378Z,10.10
2019-03-30T03:56:33.800Z,10.83
2019-03-30T03:59:02.593Z,11.17
2019-03-30T04:01:33.824Z,9.93
2019-03-30T04:04:04.536Z,10.30
2019-03-30T04:06:32.897Z,10.77
2019-03-30T04:09:03.662Z,9.40
2019-03-30T04:11:32.002Z,9.20
2019-03-30T04:14:00.463Z,9.07
2019-03-30T04:16:28.592Z,10.07
2019-03-30T04:18:56.754Z,9.60
2019-03-30T04:21:42.390Z,10.67
2019-03-30T04:23:56.041Z,9.80
2019-03-30T04:26:24.234Z,9.13
2019-03-30T04:28:52.399Z,9.83
2019-03-30T04:31:20.595Z,9.83
2019-03-30T04:33:48.770Z,8.50
2019-03-30T04:36:17.040Z,6.80
2019-03-30T04:38:45.220Z,10.17
2019-03-30T04:41:13.419Z,10.17
2019-03-30T04:43:41.603Z,10.67
2019-03-30T04:46:09.774Z,10.47
2019-03-30T04:48:38.982Z,11.33
2019-03-30T04:51:07.153Z,11.00
2019-03-30T04:53:35.385Z,10.37
2019-03-30T04:56:03.584Z,11.80
2019-03-30T04:58:31.835Z,11.93
2019-03-30T05:01:00.019Z,10.90
2019-03-30T05:03:28.614Z,10.57
2019-03-30T05:05:56.845Z,10.00
2019-03-30T05:08:25.103Z,10.67
2019-03-30T05:10:53.333Z,10.37
2019-03-30T05:13:21.566Z,10.23
2019-03-30T05:15:50.763Z,11.60
2019-03-30T05:18:18.944Z,10.00
2019-03-30T05:20:48.179Z,10.97
2019-03-30T05:23:16.325Z,11.07
2019-03-30T05:25:44.515Z,10.80
2019-03-30T05:28:12.725Z,10.47
2019-03-30T05:30:40.918Z,9.67
2019-03-30T05:33:09.177Z,10.53
2019-03-30T05:35:37.502Z,9.90
2019-03-30T05:38:05.741Z,9.87
2019-03-30T05:40:33.914Z,10.57
2019-03-30T05:43:03.144Z,9.80
2019-03-30T05:45:31.384Z,10.30
2019-03-30T05:47:59.562Z,10.17
2019-03-30T05:50:27.774Z,10.30
2019-03-30T05:52:55.946Z,10.67
2019-03-30T05:55:24.192Z,11.20
2019-03-30T05:57:52.444Z,11.43
2019-03-30T06:00:22.906Z,11.57
2019-03-30T06:02:51.099Z,10.43
2019-03-30T06:05:19.333Z,11.00
2019-03-30T06:07:47.708Z,10.70
2019-03-30T06:10:15.912Z,11.50
2019-03-30T06:12:44.104Z,10.73
2019-03-30T06:15:12.619Z,11.30
2019-03-30T06:17:40.893Z,10.90
2019-03-30T06:20:09.108Z,11.23
2019-03-30T06:22:40.677Z,10.30
2019-03-30T06:25:07.393Z,10.80
2019-03-30T06:27:35.589Z,11.47
2019-03-30T06:30:17.709Z,11.03
2019-03-30T06:32:45.934Z,10.70
2019-03-30T06:35:14.118Z,11.53
2019-03-30T06:37:42.362Z,9.93
2019-03-30T06:40:10.888Z,10.80
2019-03-30T06:42:39.396Z,10.80
2019-03-30T06:45:07.859Z,11.07
2019-03-30T06:47:37.091Z,11.40
2019-03-30T06:50:05.445Z,11.17
2019-03-30T06:52:33.857Z,11.03
2019-03-30T06:55:02.062Z,10.40
2019-03-30T06:57:30.261Z,10.53
2019-03-30T06:59:58.506Z,11.33
2019-03-30T07:02:27.120Z,11.80
2019-03-30T07:04:55.430Z,11.30
2019-03-30T07:07:24.630Z,11.10
2019-03-30T07:09:52.877Z,10.63
2019-03-30T07:12:23.038Z,10.87
2019-03-30T07:14:53.081Z,11.83
2019-03-30T07:17:22.473Z,10.87
2019-03-30T07:19:54.156Z,10.27
2019-03-30T07:22:22.428Z,9.93
2019-03-30T07:24:50.639Z,10.60
2019-03-30T07:27:18.831Z,9.37
2019-03-30T07:29:47.292Z,10.30
2019-03-30T07:32:15.497Z,10.20
2019-03-30T07:34:43.739Z,9.37
2019-03-30T07:37:11.917Z,9.23
2019-03-30T07:39:40.128Z,9.87
2019-03-30T07:42:08.326Z,10.13
2019-03-30T07:44:36.678Z,9.30
2019-03-30T07:47:04.949Z,9.07
2019-03-30T07:49:33.406Z,8.60
2019-03-30T07:52:01.702Z,9.10
2019-03-30T07:54:29.997Z,9.27
2019-03-30T07:57:04.966Z,8.23
2019-03-30T07:59:28.642Z,8.67
2019-03-30T08:01:57.068Z,9.50
2019-03-30T08:04:28.452Z,9.13
2019-03-30T08:06:55.448Z,9.67
2019-03-30T08:09:23.736Z,8.33
2019-03-30T08:11:51.937Z,8.57
2019-03-30T08:14:20.131Z,9.53
2019-03-30T08:16:48.402Z,9.17
2019-03-30T08:19:16.817Z,9.17
2019-03-30T08:21:45.009Z,9.17
2019-03-30T08:24:15.791Z,9.13
2019-03-30T08:26:44.171Z,9.77
2019-03-30T08:29:12.489Z,9.17
2019-03-30T08:31:40.691Z,9.17
2019-03-30T08:34:09.020Z,8.83
2019-03-30T08:36:37.220Z,10.20
2019-03-30T08:39:06.406Z,9.93
2019-03-30T08:41:34.590Z,9.10
2019-03-30T08:44:03.104Z,10.07
2019-03-30T08:46:31.377Z,9.43
2019-03-30T08:48:59.548Z,9.83
2019-03-30T08:51:27.776Z,9.57
2019-03-30T08:53:55.984Z,9.73
2019-03-30T08:56:27.727Z,9.47
2019-03-30T08:58:54.404Z,9.80
2019-03-30T09:01:22.585Z,9.80
2019-03-30T09:03:50.774Z,11.07
2019-03-30T09:06:18.977Z,9.57
2019-03-30T09:08:47.260Z,10.17
2019-03-30T09:11:15.633Z,10.37
2019-03-30T09:13:46.885Z,10.27
2019-03-30T09:16:15.157Z,10.50
2019-03-30T09:18:43.452Z,9.83
2019-03-30T09:21:11.730Z,10.33
2019-03-30T09:23:39.934Z,9.80
2019-03-30T09:26:08.142Z,10.03
2019-03-30T09:28:36.342Z,10.37
2019-03-30T09:31:04.644Z,10.53
2019-03-30T09:33:32.866Z,10.80
2019-03-30T09:36:01.225Z,10.13
2019-03-30T09:38:29.642Z,10.07
2019-03-30T09:40:59.017Z,10.70
2019-03-30T09:43:27.187Z,10.57
2019-03-30T09:45:55.496Z,9.60
2019-03-30T09:48:23.723Z,10.53
2019-03-30T09:50:51.999Z,10.73
2019-03-30T09:53:20.195Z,9.83
2019-03-30T09:55:48.510Z,10.73
2019-03-30T09:58:16.832Z,16.33
2019-03-30T10:00:46.270Z,10.43
2019-03-30T10:03:14.473Z,11.53
2019-03-30T10:05:42.738Z,10.13
2019-03-30T10:08:11.102Z,9.77
2019-03-30T10:10:39.356Z,9.93
2019-03-30T10:13:07.672Z,9.63
2019-03-30T10:15:35.904Z,10.37
2019-03-30T10:18:04.114Z,9.90
2019-03-30T10:20:32.526Z,10.20
2019-03-30T10:23:00.703Z,10.53
2019-03-30T10:25:28.896Z,9.87
2019-03-30T10:27:57.116Z,9.93
2019-03-30T10:30:25.389Z,10.37
2019-03-30T10:32:53.587Z,10.70
2019-03-30T10:35:22.023Z,9.93
2019-03-30T10:37:50.282Z,10.23
2019-03-30T10:40:20.873Z,9.80
2019-03-30T10:42:49.614Z,10.63
2019-03-30T10:45:17.905Z,9.80
2019-03-30T10:47:46.104Z,10.00
2019-03-30T10:50:14.372Z,9.43
2019-03-30T10:52:42.610Z,9.07
2019-03-30T10:55:10.792Z,10.07
2019-03-30T10:57:38.978Z,9.63
2019-03-30T11:00:08.848Z,11.07
2019-03-30T11:02:38.317Z,9.50
2019-03-30T11:05:06.681Z,9.57
2019-03-30T11:07:34.925Z,9.77
2019-03-30T11:10:03.585Z,9.30
2019-03-30T11:12:31.821Z,8.90
2019-03-30T11:15:00.002Z,9.50
2019-03-30T11:17:28.327Z,8.37
2019-03-30T11:19:56.493Z,9.13
2019-03-30T11:22:24.701Z,9.00
2019-03-30T11:25:06.218Z,9.17
2019-03-30T11:27:22.978Z,9.43
2019-03-30T11:29:51.155Z,9.97
2019-03-30T11:32:19.368Z,8.90
2019-03-30T11:34:47.771Z,8.77
2019-03-30T11:37:16.140Z,9.37
2019-03-30T11:39:44.462Z,8.57
2019-03-30T11:42:13.724Z,9.00
2019-03-30T11:44:41.982Z,8.97
2019-03-30T11:47:10.236Z,9.30
2019-03-30T11:49:38.463Z,9.50
2019-03-30T11:52:06.650Z,8.47
2019-03-30T11:54:34.896Z,9.10
2019-03-30T11:57:03.101Z,7.93
2019-03-30T11:59:31.288Z,8.60
2019-03-30T12:02:02.405Z,8.80
2019-03-30T12:04:31.737Z,9.10
2019-03-30T12:07:00.199Z,9.17
2019-03-30T12:09:28.516Z,8.37
2019-03-30T12:11:57.910Z,9.07
2019-03-30T12:14:26.138Z,7.90
2019-03-30T12:16:54.257Z,8.20
2019-03-30T12:19:22.561Z,8.97
2019-03-30T12:21:50.729Z,8.37
2019-03-30T12:24:19.108Z,8.87
2019-03-30T12:26:47.301Z,8.70
2019-03-30T12:29:15.618Z,8.67
2019-03-30T12:31:43.920Z,8.03
2019-03-30T12:34:13.171Z,6.80
2019-03-30T12:36:41.614Z,7.93
2019-03-30T12:39:09.961Z,8.13
2019-03-30T12:41:38.263Z,9.23
2019-03-30T12:44:06.558Z,8.00
2019-03-30T12:46:34.774Z,8.40
2019-03-30T12:49:02.981Z,8.47
2019-03-30T12:51:31.180Z,8.07
2019-03-30T12:53:59.344Z,7.10
2019-03-30T12:56:27.600Z,7.43
2019-03-30T12:58:55.773Z,8.13
2019-03-30T13:01:23.953Z,6.80
2019-03-30T13:03:52.180Z,6.20
2019-03-30T13:06:20.381Z,6.80
2019-03-30T13:08:48.606Z,4.70
2019-03-30T13:11:16.809Z,4.10
2019-03-30T13:13:44.986Z,3.40
2019-03-30T13:16:13.326Z,4.83
2019-03-30T13:18:41.605Z,5.97
2019-03-30T13:21:10.069Z,4.90
2019-03-30T13:23:38.268Z,4.67
2019-03-30T13:26:06.550Z,5.33
2019-03-30T13:28:34.992Z,5.10
2019-03-30T13:31:03.314Z,4.43
2019-03-30T13:33:31.637Z,3.70
2019-03-30T13:35:59.929Z,4.60
2019-03-30T13:38:28.376Z,4.60
2019-03-30T13:40:56.661Z,4.97
2019-03-30T13:43:25.065Z,3.90
2019-03-30T13:45:53.363Z,4.83
2019-03-30T13:48:21.721Z,4.67
2019-03-30T13:50:49.984Z,4.50
2019-03-30T13:53:18.306Z,4.10
2019-03-30T13:55:46.595Z,4.80
2019-03-30T13:58:15.138Z,4.83
2019-03-30T14:00:43.457Z,4.90
2019-03-30T14:03:11.857Z,4.47
2019-03-30T14:05:40.304Z,5.13
2019-03-30T14:08:08.527Z,4.83
2019-03-30T14:10:39.009Z,4.77
2019-03-30T14:13:07.020Z,5.13
2019-03-30T14:15:35.245Z,5.10
2019-03-30T14:18:03.548Z,4.40
2019-03-30T14:20:31.835Z,4.40
2019-03-30T14:23:00.119Z,4.83
2019-03-30T14:25:28.625Z,4.50
2019-03-30T14:27:56.864Z,5.10
2019-03-30T14:30:25.203Z,4.80
2019-03-30T14:32:53.613Z,5.03
2019-03-30T14:35:21.881Z,4.50
2019-03-30T14:37:50.190Z,4.20
2019-03-30T14:40:18.409Z,4.60
2019-03-30T14:42:46.622Z,4.53
2019-03-30T14:45:14.929Z,4.57
2019-03-30T14:47:43.250Z,4.63
2019-03-30T14:50:11.649Z,4.67
2019-03-30T14:52:40.045Z,4.80
2019-03-30T14:55:08.581Z,4.83
2019-03-30T14:57:37.760Z,4.43
2019-03-30T15:00:06.790Z,5.23
2019-03-30T15:02:36.101Z,4.80
2019-03-30T15:05:04.971Z,4.50
2019-03-30T15:07:33.177Z,4.53
2019-03-30T15:10:01.397Z,4.50
2019-03-30T15:12:29.623Z,5.27
2019-03-30T15:14:57.917Z,4.53
2019-03-30T15:17:26.184Z,4.70
2019-03-30T15:19:54.487Z,5.40
2019-03-30T15:22:22.768Z,4.77
2019-03-30T15:24:51.001Z,4.67
2019-03-30T15:27:19.206Z,5.03
2019-03-30T15:29:47.834Z,4.37
2019-03-30T15:32:16.097Z,3.97
2019-03-30T15:34:44.333Z,4.37
2019-03-30T15:37:12.533Z,4.13
2019-03-30T15:39:40.785Z,3.93
2019-03-30T15:42:09.021Z,3.80
2019-03-30T15:44:37.539Z,3.80
2019-03-30T15:47:05.838Z,3.73
2019-03-30T15:49:34.109Z,3.20
2019-03-30T15:52:13.421Z,4.03
2019-03-30T15:54:32.586Z,4.17
2019-03-30T15:57:13.469Z,3.90
2019-03-30T15:59:31.168Z,3.53
2019-03-30T16:01:59.611Z,4.13
2019-03-30T16:04:27.800Z,4.10
2019-03-30T16:06:56.016Z,3.57
2019-03-30T16:09:24.224Z,3.70
2019-03-30T16:11:52.441Z,3.70
2019-03-30T16:14:20.671Z,4.00
2019-03-30T16:16:48.862Z,5.77
2019-03-30T16:19:17.095Z,4.30
2019-03-30T16:21:45.311Z,4.30
2019-03-30T16:24:13.573Z,3.60
2019-03-30T16:26:42.563Z,3.10
2019-03-30T16:29:10.960Z,3.07
2019-03-30T16:31:39.188Z,3.40
2019-03-30T16:34:07.369Z,2.97
2019-03-30T16:36:35.588Z,3.20
2019-03-30T16:39:05.664Z,3.80
2019-03-30T16:41:34.201Z,3.17
2019-03-30T16:44:02.877Z,3.13
2019-03-30T16:46:31.143Z,2.90
2019-03-30T16:48:59.388Z,3.10
2019-03-30T16:51:27.717Z,3.20
2019-03-30T16:53:55.940Z,3.13
2019-03-30T16:56:24.647Z,2.50
2019-03-30T16:58:52.874Z,3.13
2019-03-30T17:01:21.121Z,3.70
2019-03-30T17:03:49.414Z,3.87
2019-03-30T17:06:17.651Z,3.00
2019-03-30T17:08:45.861Z,2.73
2019-03-30T17:11:14.086Z,3.50
2019-03-30T17:13:42.404Z,2.93
2019-03-30T17:16:10.735Z,3.33
2019-03-30T17:18:40.162Z,3.10
2019-03-30T17:21:08.384Z,3.27
2019-03-30T17:23:36.687Z,3.10
2019-03-30T17:26:04.947Z,2.80
2019-03-30T17:28:33.279Z,2.80
2019-03-30T17:31:01.534Z,3.23
2019-03-30T17:33:29.910Z,3.10
2019-03-30T17:35:58.169Z,3.13
2019-03-30T17:38:26.357Z,2.70
2019-03-30T17:40:54.645Z,2.70
2019-03-30T17:43:22.817Z,3.00
2019-03-30T17:45:51.117Z,2.93
2019-03-30T17:48:19.325Z,2.87
2019-03-30T17:50:47.692Z,2.67
2019-03-30T17:53:15.889Z,2.57
2019-03-30T17:55:44.097Z,2.90
2019-03-30T17:58:13.662Z,2.60
2019-03-30T18:00:42.101Z,2.60
2019-03-30T18:03:10.361Z,2.60
2019-03-30T18:05:38.555Z,2.20
2019-03-30T18:08:06.801Z,2.50
2019-03-30T18:10:34.978Z,2.20
2019-03-30T18:13:03.618Z,2.20
2019-03-30T18:15:34.495Z,2.30
2019-03-30T18:18:01.951Z,2.40
2019-03-30T18:20:30.246Z,2.03
2019-03-30T18:22:58.504Z,2.30
2019-03-30T18:25:26.765Z,2.40
2019-03-30T18:27:55.009Z,2.33
2019-03-30T18:30:34.107Z,2.30
2019-03-30T18:33:02.376Z,2.60
2019-03-30T18:35:31.276Z,2.30
2019-03-30T18:38:01.969Z,2.30
2019-03-30T18:40:30.942Z,2.40
2019-03-30T18:42:59.360Z,2.33
2019-03-30T18:45:27.851Z,2.40
2019-03-30T18:48:18.734Z,2.43
2019-03-30T18:50:47.456Z,2.30
2019-03-30T18:53:16.315Z,2.10
2019-03-30T18:55:44.552Z,2.30
2019-03-30T18:58:12.932Z,2.27
2019-03-30T19:00:41.177Z,2.50
2019-03-30T19:03:09.554Z,2.30
2019-03-30T19:05:37.822Z,2.60
2019-03-30T19:08:06.037Z,2.37
2019-03-30T19:10:34.309Z,2.20
2019-03-30T19:13:02.485Z,2.40
2019-03-30T19:15:30.691Z,2.90
2019-03-30T19:17:59.126Z,2.33
2019-03-30T19:20:27.348Z,2.70
2019-03-30T19:22:55.602Z,2.50
2019-03-30T19:25:23.836Z,2.20
2019-03-30T19:27:52.109Z,2.43
2019-03-30T19:30:20.664Z,2.50
2019-03-30T19:32:48.848Z,2.63
2019-03-30T19:35:17.041Z,2.70
2019-03-30T19:37:45.216Z,2.37
2019-03-30T19:40:13.509Z,2.80
2019-03-30T19:42:41.736Z,2.70
2019-03-30T19:45:10.321Z,2.40
2019-03-30T19:47:38.566Z,2.63
2019-03-30T19:50:10.014Z,2.50
2019-03-30T19:52:40.175Z,2.93
2019-03-30T19:55:08.405Z,2.60
2019-03-30T19:57:36.632Z,2.57
2019-03-30T20:00:06.131Z,2.43
2019-03-30T20:02:34.579Z,2.57
2019-03-30T20:05:03.308Z,2.83
2019-03-30T20:07:31.806Z,2.93
2019-03-30T20:09:59.985Z,2.60
2019-03-30T20:12:28.339Z,2.80
2019-03-30T20:14:56.754Z,3.03
2019-03-30T20:17:24.966Z,2.87
2019-03-30T20:19:53.192Z,2.90
2019-03-30T20:22:21.902Z,2.87
2019-03-30T20:24:51.071Z,2.90
2019-03-30T20:27:19.370Z,3.13
2019-03-30T20:29:47.701Z,2.60
2019-03-30T20:32:15.994Z,2.50
2019-03-30T20:34:44.201Z,2.63
2019-03-30T20:37:12.408Z,2.70
2019-03-30T20:39:40.610Z,2.97
2019-03-30T20:42:08.872Z,3.00
2019-03-30T20:44:37.077Z,3.00
2019-03-30T20:47:05.333Z,3.20
2019-03-30T20:49:34.487Z,3.40
2019-03-30T20:52:02.874Z,3.50
2019-03-30T20:54:31.073Z,3.83
2019-03-30T20:56:59.258Z,3.87
2019-03-30T20:59:39.309Z,3.77
2019-03-30T21:01:57.601Z,3.87
2019-03-30T21:04:25.849Z,4.07
2019-03-30T21:06:54.022Z,4.10
2019-03-30T21:09:23.256Z,4.63
2019-03-30T21:11:51.470Z,4.97
2019-03-30T21:14:19.820Z,5.30
2019-03-30T21:16:47.992Z,4.70
2019-03-30T21:19:16.230Z,4.90
2019-03-30T21:21:45.509Z,4.70
2019-03-30T21:24:13.790Z,4.97
2019-03-30T21:26:42.068Z,5.97
2019-03-30T21:29:10.354Z,5.07
2019-03-30T21:31:38.608Z,5.30
2019-03-30T21:34:06.841Z,5.23
2019-03-30T21:36:36.152Z,5.50
2019-03-30T21:39:06.655Z,5.60
2019-03-30T21:41:35.186Z,5.73
2019-03-30T21:44:03.488Z,5.13
2019-03-30T21:46:31.678Z,5.80
2019-03-30T21:48:59.940Z,6.10
2019-03-30T21:51:28.218Z,5.67
2019-03-30T21:53:56.425Z,6.30
2019-03-30T21:56:24.633Z,5.63
2019-03-30T21:58:52.843Z,5.63
2019-03-30T22:01:21.036Z,5.83
2019-03-30T22:03:49.277Z,5.77
2019-03-30T22:06:17.585Z,5.40
2019-03-30T22:08:47.015Z,5.60
2019-03-30T22:11:15.229Z,6.07
2019-03-30T22:13:43.417Z,5.87
2019-03-30T22:16:11.601Z,5.93
2019-03-30T22:18:39.846Z,6.50
2019-03-30T22:21:08.074Z,6.20
2019-03-30T22:23:36.293Z,6.27
2019-03-30T22:26:04.511Z,5.70
2019-03-30T22:28:32.790Z,6.30
2019-03-30T22:31:01.210Z,6.60
2019-03-30T22:33:30.905Z,5.50
2019-03-30T22:35:59.390Z,5.70
2019-03-30T22:38:27.646Z,6.13
2019-03-30T22:40:55.876Z,6.07
2019-03-30T22:43:24.077Z,6.27
2019-03-30T22:45:52.321Z,6.07
2019-03-30T22:48:20.506Z,6.23
2019-03-30T22:50:48.877Z,6.77
2019-03-30T22:53:17.086Z,6.33
2019-03-30T22:55:45.369Z,6.20
2019-03-30T22:58:13.729Z,5.90
2019-03-30T23:01:13.330Z,6.30
2019-03-30T23:03:44.015Z,6.10
2019-03-30T23:06:12.269Z,6.13
2019-03-30T23:08:40.489Z,6.10
2019-03-30T23:11:08.722Z,5.67
2019-03-30T23:13:36.943Z,5.50
2019-03-30T23:16:05.169Z,5.90
2019-03-30T23:18:33.385Z,5.83
2019-03-30T23:21:02.841Z,5.93
2019-03-30T23:23:30.994Z,6.43
2019-03-30T23:25:59.308Z,6.43
2019-03-30T23:28:28.510Z,6.10
2019-03-30T23:30:56.822Z,6.40
2019-03-30T23:33:25.109Z,6.57
2019-03-30T23:35:53.393Z,6.07
2019-03-30T23:38:21.673Z,5.90
2019-03-30T23:40:50.058Z,5.73
2019-03-30T23:43:18.406Z,6.17
2019-03-30T23:45:46.671Z,6.10
2019-03-30T23:48:15.937Z,6.83
2019-03-30T23:50:44.230Z,6.67
2019-03-30T23:53:12.486Z,6.47
2019-03-30T23:55:40.700Z,6.00
2019-03-30T23:58:09.032Z,5.73
